Airfield :
LOGIN :

Register | Disclaimer

   EN    FR    IT 

 










Legend :    VFR   Marginal VFR   IFR   Intensive IFR   Very Intensive IFR
Visi :
Ceiling :
>= 8 km
>= 3000ft
5 to 8 km
1000 to 3000 ft
1500m to 5 km
500 to 1000 ft
800 to 1500m
200 to 500 ft
< 800m
< 200 ft
Symbols :   Thunderstorms  Fog  Heavy snow  Heavy precipitations  Wind > 20 kt
SIGMETs :     Misc.  Thunderstorms  Icing  Turbulence  Mountain Waves  Volcanic Ashes







- Airport Elevation : 256 ft
- IATA code : CFR
- Download approach charts


LFRK - Caen

CURRENT METAR :
  • 141830Z AUTO 25009KT CAVOK 04/02 Q0994 TEMPO 23020G35KT 2000 TSRAGS BKN015CB

EXPIRED METARs :
  • 141800Z AUTO 26011KT 9999 FEW017/// SCT038/// BKN048/// ///CB 05/03 Q0994 TEMPO 23020G35KT 2000 TSRAGS BKN008 BKN020CB
  • 141730Z AUTO 30012KT 270V330 9999 RA SCT019/// BKN030/// BKN043/// ///TCU 04/03 Q0993 TEMPO 23020G35KT 2000 TSRAGS BKN015CB
  • 141700Z AUTO 24016KT 9999 -RA BKN022/// BKN038/// BKN060/// ///TCU 05/04 Q0993 TEMPO 23020G35KT 2000 TSRAGS BKN015CB
  • 141630Z AUTO 22016KT 9999 FEW043/// SCT100/// BKN130/// ///CB 05/03 Q0993 TEMPO 23020G35KT 2000 TSRAGS BKN008 BKN020CB
  • 141600Z AUTO 23013KT CAVOK 05/03 Q0993 TEMPO 23020G35KT 2000 TSRAGS BKN015CB

TAF TAF LFRK
Valid from the 14 at 15:00 until the 15 at 00:00 UTC


141400Z 1415/1424 24010KT 9999 BKN030
TEMPO 1415/1424 24015G25KT 3000 SHRAGS BKN008 BKN020CB
PROB40
TEMPO 1415/1424 23020G35KT 2000 TSRAGS BKN015CB
Met : +33 2 31 26 68 11
No reported NOTAMs for that airfield.
2 SIGMETs reported for the Brest FIR (LFRR) :
 
Severe turbulence
LFRR SIGMET 15 VALID 141700/142000 LFPW
LFRR BREST FIR/UIR SEV TURB FCST WI N4730 W00800 - N4845 W00800 - N4815 W00515 - N4745 W00015 - N4630 W00015 - N4630 W00130 - N4730 W00800 FL160/300 MOV S 15KT NC=
Severe turbulence
LFRR SIGMET 14 VALID 141700/142000 LFPW
LFRR BREST FIR/UIR SEV TURB FCST WI N4630 W00045 - N4630 W00130 - N4330 W00145 - N4500 W00800 - N4900 W00800 - N5000 W00200 - N5000 W00115 - N4830 W00130 - N4830 W00400 - N4645 W00045 - N4630 W00045 SFC/FL050 STNR NC=



MET'MAP, your aeronautical weather chart ! - Copyright ORBIFLY December 2007 - Disclaimer

ORBIFLY MET'MAP TEAM :

Programming & Development : Alexandra Zaïnal
Concept & Development : Baudouin d'Aumeries
Co-Development & Prog : Marc-Olivier Méhu
Technical & hardware support : Manuel Goepfert

Contact : metmap@orbifly.com




SOURCES & CREDITS :

   NOAA